Terminal Aerodrome Forecast
Issued by NWS Houston/Galveston TX

Home | Current Version | Previous Version | Text Only | Print | Product List | Glossary On
Versions: 1 2 3 4 5 6 7 8 9 10 11 12 13 14 15 16 17 18 19 20 21 22 23 24 25 26 27 28 29 30 31 32 33 34 35
000
FTUS44 KHGX 220857 AAC
TAFHOU
TAF AMD
KHOU 220857Z 2209/2306 00000KT P6SM BCFG FEW020 FEW250
     FM221100 36004KT P6SM VCSH BKN015 BKN150
     FM221400 36008KT 6SM -RA BR VCTS BKN015CB
      TEMPO 2214/2216 36025KT 3SM TSRA
     FM221700 34010G20KT P6SM SCT025 BKN150
     FM221900 34015G25KT P6SM SCT180
     FM230400 35012KT P6SM SKC=

USA.gov is the U.S. government's official web portal to all federal, state and local government web resources and services.